Terminal Aerodrome Forecast
Issued by NWS Green Bay, WI

Home | Current Version | Previous Version | Text Only | Print | Product List | Glossary On
Versions: 1 2 3 4 5 6 7 8 9 10 11 12 13 14 15 16 17 18 19 20 21 22
000
FTUS43 KGRB 011139
TAFGRB
TAF
KGRB 011139Z 0112/0212 05009KT P6SM SCT008 OVC014
      TEMPO 0112/0116 -SHRA BKN008
     FM011600 05007KT P6SM SCT012 OVC035
      TEMPO 0116/0120 -SHRA BKN012
     FM012000 03005KT P6SM BKN012 OVC030
     FM020300 02005KT P6SM OVC004
     FM020800 36006KT P6SM OVC006
     FM021000 35006KT P6SM OVC011=

USA.gov is the U.S. government's official web portal to all federal, state and local government web resources and services.